sensor_id;sensor_type;location;lat;lon;timestamp;P1;durP1;ratioP1;P2;durP2;ratioP2
12359;SDS011;6244;51.460;7.090;2023-03-15T00:01:13;9.73;;;3.47;;
12359;SDS011;6244;51.460;7.090;2023-03-15T00:06:12;8.95;;;3.63;;
12359;SDS011;6244;51.460;7.090;2023-03-15T00:11:09;8.43;;;3.22;;
12359;SDS011;6244;51.460;7.090;2023-03-15T00:16:07;10.77;;;4.40;;
12359;SDS011;6244;51.460;7.090;2023-03-15T00:21:03;9.25;;;4.22;;
12359;SDS011;6244;51.460;7.090;2023-03-15T00:26:00;9.15;;;4.72;;
12359;SDS011;6244;51.460;7.090;2023-03-15T00:31:03;9.82;;;5.05;;
12359;SDS011;6244;51.460;7.090;2023-03-15T00:36:03;10.23;;;4.97;;
12359;SDS011;6244;51.460;7.090;2023-03-15T00:41:05;10.10;;;5.13;;
12359;SDS011;6244;51.460;7.090;2023-03-15T00:46:02;12.73;;;5.20;;
12359;SDS011;6244;51.460;7.090;2023-03-15T00:51:04;11.68;;;5.55;;
12359;SDS011;6244;51.460;7.090;2023-03-15T00:56:03;17.73;;;5.25;;
12359;SDS011;6244;51.460;7.090;2023-03-15T01:01:03;6.47;;;4.32;;
12359;SDS011;6244;51.460;7.090;2023-03-15T01:06:05;9.05;;;5.60;;
12359;SDS011;6244;51.460;7.090;2023-03-15T01:11:02;8.90;;;6.32;;
12359;SDS011;6244;51.460;7.090;2023-03-15T01:16:00;11.02;;;8.48;;
12359;SDS011;6244;51.460;7.090;2023-03-15T01:20:57;12.60;;;8.27;;
12359;SDS011;6244;51.460;7.090;2023-03-15T01:25:55;16.27;;;8.63;;
12359;SDS011;6244;51.460;7.090;2023-03-15T01:30:55;12.80;;;8.32;;
12359;SDS011;6244;51.460;7.090;2023-03-15T01:35:56;11.70;;;7.55;;
12359;SDS011;6244;51.460;7.090;2023-03-15T01:40:56;6.78;;;5.82;;
12359;SDS011;6244;51.460;7.090;2023-03-15T01:45:59;10.63;;;6.10;;
12359;SDS011;6244;51.460;7.090;2023-03-15T01:50:58;7.97;;;6.05;;
12359;SDS011;6244;51.460;7.090;2023-03-15T01:55:58;13.00;;;7.60;;
12359;SDS011;6244;51.460;7.090;2023-03-15T02:00:57;11.77;;;7.57;;
12359;SDS011;6244;51.460;7.090;2023-03-15T02:05:55;13.52;;;7.47;;
12359;SDS011;6244;51.460;7.090;2023-03-15T02:10:55;12.23;;;8.30;;
12359;SDS011;6244;51.460;7.090;2023-03-15T02:15:55;13.75;;;7.35;;
12359;SDS011;6244;51.460;7.090;2023-03-15T02:20:52;12.07;;;6.28;;
12359;SDS011;6244;51.460;7.090;2023-03-15T02:25:57;11.02;;;6.45;;
12359;SDS011;6244;51.460;7.090;2023-03-15T02:31:05;8.27;;;5.70;;
12359;SDS011;6244;51.460;7.090;2023-03-15T02:36:06;7.57;;;5.07;;
12359;SDS011;6244;51.460;7.090;2023-03-15T02:41:05;10.98;;;6.22;;
12359;SDS011;6244;51.460;7.090;2023-03-15T02:46:02;8.88;;;5.68;;
12359;SDS011;6244;51.460;7.090;2023-03-15T02:51:01;11.38;;;6.43;;
12359;SDS011;6244;51.460;7.090;2023-03-15T02:55:58;15.23;;;8.60;;
12359;SDS011;6244;51.460;7.090;2023-03-15T03:00:54;14.75;;;9.15;;
12359;SDS011;6244;51.460;7.090;2023-03-15T03:05:50;16.42;;;9.80;;
12359;SDS011;6244;51.460;7.090;2023-03-15T03:10:48;21.90;;;10.00;;
12359;SDS011;6244;51.460;7.090;2023-03-15T03:15:45;18.67;;;9.40;;
12359;SDS011;6244;51.460;7.090;2023-03-15T03:20:54;17.67;;;9.82;;
12359;SDS011;6244;51.460;7.090;2023-03-15T03:25:53;16.48;;;10.23;;
12359;SDS011;6244;51.460;7.090;2023-03-15T03:30:51;15.05;;;8.82;;
12359;SDS011;6244;51.460;7.090;2023-03-15T03:35:48;18.65;;;9.13;;
12359;SDS011;6244;51.460;7.090;2023-03-15T03:40:45;14.02;;;7.55;;
12359;SDS011;6244;51.460;7.090;2023-03-15T03:45:43;8.50;;;5.35;;
12359;SDS011;6244;51.460;7.090;2023-03-15T03:50:39;7.15;;;5.15;;
12359;SDS011;6244;51.460;7.090;2023-03-15T03:55:36;9.45;;;5.45;;
12359;SDS011;6244;51.460;7.090;2023-03-15T04:00:33;11.93;;;6.93;;
12359;SDS011;6244;51.460;7.090;2023-03-15T04:05:31;12.93;;;7.30;;
12359;SDS011;6244;51.460;7.090;2023-03-15T04:10:27;15.60;;;8.93;;
12359;SDS011;6244;51.460;7.090;2023-03-15T04:15:29;11.50;;;7.97;;
12359;SDS011;6244;51.460;7.090;2023-03-15T04:20:25;16.83;;;9.15;;
12359;SDS011;6244;51.460;7.090;2023-03-15T04:25:23;13.40;;;8.27;;
12359;SDS011;6244;51.460;7.090;2023-03-15T04:30:20;17.30;;;9.18;;
12359;SDS011;6244;51.460;7.090;2023-03-15T04:35:21;17.30;;;10.50;;
12359;SDS011;6244;51.460;7.090;2023-03-15T04:40:18;16.52;;;10.35;;
12359;SDS011;6244;51.460;7.090;2023-03-15T04:45:19;18.83;;;10.23;;
12359;SDS011;6244;51.460;7.090;2023-03-15T04:50:15;17.75;;;9.65;;
12359;SDS011;6244;51.460;7.090;2023-03-15T04:55:12;17.17;;;9.60;;
12359;SDS011;6244;51.460;7.090;2023-03-15T05:00:09;16.98;;;9.25;;
12359;SDS011;6244;51.460;7.090;2023-03-15T05:05:08;18.17;;;10.75;;
12359;SDS011;6244;51.460;7.090;2023-03-15T05:10:06;20.83;;;10.65;;
12359;SDS011;6244;51.460;7.090;2023-03-15T05:15:03;17.63;;;10.65;;
12359;SDS011;6244;51.460;7.090;2023-03-15T05:20:01;20.45;;;12.07;;
12359;SDS011;6244;51.460;7.090;2023-03-15T05:25:03;16.33;;;10.15;;
12359;SDS011;6244;51.460;7.090;2023-03-15T05:30:00;18.17;;;11.02;;
12359;SDS011;6244;51.460;7.090;2023-03-15T05:34:58;17.95;;;10.68;;
12359;SDS011;6244;51.460;7.090;2023-03-15T05:39:55;19.25;;;10.32;;
12359;SDS011;6244;51.460;7.090;2023-03-15T05:44:53;18.25;;;11.30;;
12359;SDS011;6244;51.460;7.090;2023-03-15T05:49:50;22.52;;;11.55;;
12359;SDS011;6244;51.460;7.090;2023-03-15T05:54:47;23.90;;;13.18;;
12359;SDS011;6244;51.460;7.090;2023-03-15T05:59:43;26.25;;;13.90;;
12359;SDS011;6244;51.460;7.090;2023-03-15T06:04:41;27.63;;;14.32;;
12359;SDS011;6244;51.460;7.090;2023-03-15T06:09:38;26.98;;;14.75;;
12359;SDS011;6244;51.460;7.090;2023-03-15T06:14:34;31.17;;;17.02;;
12359;SDS011;6244;51.460;7.090;2023-03-15T06:19:31;32.72;;;18.38;;
12359;SDS011;6244;51.460;7.090;2023-03-15T06:24:29;33.92;;;17.33;;
12359;SDS011;6244;51.460;7.090;2023-03-15T06:29:26;32.40;;;17.98;;
12359;SDS011;6244;51.460;7.090;2023-03-15T06:34:22;38.22;;;18.77;;
12359;SDS011;6244;51.460;7.090;2023-03-15T06:39:19;37.65;;;19.80;;
12359;SDS011;6244;51.460;7.090;2023-03-15T06:44:17;42.20;;;21.27;;
12359;SDS011;6244;51.460;7.090;2023-03-15T06:49:14;34.53;;;18.55;;
12359;SDS011;6244;51.460;7.090;2023-03-15T06:54:10;35.72;;;19.00;;
12359;SDS011;6244;51.460;7.090;2023-03-15T06:59:07;34.70;;;17.00;;
12359;SDS011;6244;51.460;7.090;2023-03-15T07:04:05;29.88;;;16.45;;
12359;SDS011;6244;51.460;7.090;2023-03-15T07:09:02;29.00;;;15.52;;
12359;SDS011;6244;51.460;7.090;2023-03-15T07:13:59;25.88;;;14.35;;
12359;SDS011;6244;51.460;7.090;2023-03-15T07:18:55;24.23;;;12.25;;
12359;SDS011;6244;51.460;7.090;2023-03-15T07:23:55;23.38;;;12.30;;
12359;SDS011;6244;51.460;7.090;2023-03-15T07:28:51;21.73;;;13.15;;
12359;SDS011;6244;51.460;7.090;2023-03-15T07:33:48;21.30;;;12.88;;
12359;SDS011;6244;51.460;7.090;2023-03-15T07:38:44;23.92;;;13.40;;
12359;SDS011;6244;51.460;7.090;2023-03-15T07:43:42;22.45;;;13.90;;
12359;SDS011;6244;51.460;7.090;2023-03-15T07:48:39;27.92;;;14.43;;
12359;SDS011;6244;51.460;7.090;2023-03-15T07:53:35;22.45;;;13.73;;
12359;SDS011;6244;51.460;7.090;2023-03-15T07:58:32;22.88;;;12.43;;
12359;SDS011;6244;51.460;7.090;2023-03-15T08:03:30;18.55;;;11.25;;
12359;SDS011;6244;51.460;7.090;2023-03-15T08:08:27;18.83;;;11.05;;
12359;SDS011;6244;51.460;7.090;2023-03-15T08:13:23;17.08;;;10.38;;
12359;SDS011;6244;51.460;7.090;2023-03-15T08:18:20;14.27;;;9.20;;
12359;SDS011;6244;51.460;7.090;2023-03-15T08:23:18;15.55;;;8.77;;
12359;SDS011;6244;51.460;7.090;2023-03-15T08:28:15;15.32;;;9.05;;
12359;SDS011;6244;51.460;7.090;2023-03-15T08:33:12;13.68;;;8.20;;
12359;SDS011;6244;51.460;7.090;2023-03-15T08:38:08;14.90;;;7.80;;
12359;SDS011;6244;51.460;7.090;2023-03-15T08:43:06;13.82;;;7.93;;
12359;SDS011;6244;51.460;7.090;2023-03-15T08:48:03;12.85;;;6.72;;
12359;SDS011;6244;51.460;7.090;2023-03-15T08:53:00;10.65;;;5.90;;
12359;SDS011;6244;51.460;7.090;2023-03-15T08:57:56;13.00;;;5.95;;
12359;SDS011;6244;51.460;7.090;2023-03-15T09:02:56;11.02;;;6.63;;
12359;SDS011;6244;51.460;7.090;2023-03-15T09:07:53;15.50;;;7.60;;
12359;SDS011;6244;51.460;7.090;2023-03-15T09:12:50;13.52;;;7.32;;
12359;SDS011;6244;51.460;7.090;2023-03-15T09:17:48;13.88;;;8.45;;
12359;SDS011;6244;51.460;7.090;2023-03-15T09:22:50;16.60;;;8.27;;
12359;SDS011;6244;51.460;7.090;2023-03-15T09:27:47;19.58;;;8.90;;
12359;SDS011;6244;51.460;7.090;2023-03-15T09:32:44;19.17;;;9.68;;
12359;SDS011;6244;51.460;7.090;2023-03-15T09:37:41;19.25;;;9.77;;
12359;SDS011;6244;51.460;7.090;2023-03-15T09:42:40;19.38;;;10.52;;
12359;SDS011;6244;51.460;7.090;2023-03-15T09:47:52;13.35;;;7.75;;
12359;SDS011;6244;51.460;7.090;2023-03-15T09:52:55;14.35;;;8.00;;
12359;SDS011;6244;51.460;7.090;2023-03-15T09:57:59;15.77;;;8.00;;
12359;SDS011;6244;51.460;7.090;2023-03-15T10:02:58;12.60;;;7.40;;
12359;SDS011;6244;51.460;7.090;2023-03-15T10:08:00;11.63;;;6.53;;
12359;SDS011;6244;51.460;7.090;2023-03-15T10:13:01;14.43;;;8.07;;
12359;SDS011;6244;51.460;7.090;2023-03-15T10:18:18;15.32;;;8.45;;
12359;SDS011;6244;51.460;7.090;2023-03-15T10:23:22;14.73;;;7.07;;
12359;SDS011;6244;51.460;7.090;2023-03-15T10:28:29;15.98;;;7.82;;
12359;SDS011;6244;51.460;7.090;2023-03-15T10:33:27;17.88;;;8.85;;
12359;SDS011;6244;51.460;7.090;2023-03-15T10:38:27;13.40;;;6.03;;
12359;SDS011;6244;51.460;7.090;2023-03-15T10:43:24;7.53;;;4.15;;
12359;SDS011;6244;51.460;7.090;2023-03-15T10:48:25;9.75;;;4.68;;
12359;SDS011;6244;51.460;7.090;2023-03-15T10:53:22;8.02;;;4.25;;
12359;SDS011;6244;51.460;7.090;2023-03-15T10:58:20;12.63;;;5.25;;
12359;SDS011;6244;51.460;7.090;2023-03-15T11:03:22;13.43;;;6.37;;
12359;SDS011;6244;51.460;7.090;2023-03-15T11:08:21;15.48;;;7.05;;
12359;SDS011;6244;51.460;7.090;2023-03-15T11:13:20;12.63;;;7.20;;
12359;SDS011;6244;51.460;7.090;2023-03-15T11:18:18;10.80;;;5.22;;
12359;SDS011;6244;51.460;7.090;2023-03-15T11:23:23;9.48;;;5.15;;
12359;SDS011;6244;51.460;7.090;2023-03-15T11:28:23;7.18;;;3.53;;
12359;SDS011;6244;51.460;7.090;2023-03-15T11:33:25;5.22;;;3.10;;
12359;SDS011;6244;51.460;7.090;2023-03-15T11:38:30;4.53;;;3.00;;
12359;SDS011;6244;51.460;7.090;2023-03-15T11:43:33;5.13;;;2.80;;
12359;SDS011;6244;51.460;7.090;2023-03-15T11:48:41;5.65;;;2.78;;
12359;SDS011;6244;51.460;7.090;2023-03-15T11:53:44;3.93;;;2.87;;
12359;SDS011;6244;51.460;7.090;2023-03-15T11:58:42;5.30;;;2.60;;
12359;SDS011;6244;51.460;7.090;2023-03-15T12:03:40;3.97;;;2.00;;
12359;SDS011;6244;51.460;7.090;2023-03-15T12:08:46;4.63;;;2.38;;
12359;SDS011;6244;51.460;7.090;2023-03-15T12:13:50;4.50;;;2.42;;
12359;SDS011;6244;51.460;7.090;2023-03-15T12:18:58;8.30;;;3.37;;
12359;SDS011;6244;51.460;7.090;2023-03-15T12:23:59;7.15;;;2.85;;
12359;SDS011;6244;51.460;7.090;2023-03-15T12:29:01;4.88;;;2.90;;
12359;SDS011;6244;51.460;7.090;2023-03-15T12:34:02;9.18;;;2.80;;
12359;SDS011;6244;51.460;7.090;2023-03-15T12:39:18;5.93;;;2.85;;
12359;SDS011;6244;51.460;7.090;2023-03-15T12:44:17;4.35;;;2.50;;
12359;SDS011;6244;51.460;7.090;2023-03-15T12:49:27;4.30;;;2.70;;
12359;SDS011;6244;51.460;7.090;2023-03-15T12:54:29;7.28;;;3.80;;
12359;SDS011;6244;51.460;7.090;2023-03-15T12:59:34;5.47;;;3.40;;
12359;SDS011;6244;51.460;7.090;2023-03-15T13:04:36;4.72;;;3.30;;
12359;SDS011;6244;51.460;7.090;2023-03-15T13:09:44;7.13;;;3.65;;
12359;SDS011;6244;51.460;7.090;2023-03-15T13:14:53;6.13;;;3.60;;
12359;SDS011;6244;51.460;7.090;2023-03-15T13:19:54;5.47;;;3.28;;
12359;SDS011;6244;51.460;7.090;2023-03-15T13:25:06;6.80;;;4.13;;
12359;SDS011;6244;51.460;7.090;2023-03-15T13:30:23;8.52;;;3.55;;
12359;SDS011;6244;51.460;7.090;2023-03-15T13:35:26;6.30;;;3.42;;
12359;SDS011;6244;51.460;7.090;2023-03-15T13:40:24;6.32;;;3.35;;
12359;SDS011;6244;51.460;7.090;2023-03-15T13:45:21;4.82;;;2.88;;
12359;SDS011;6244;51.460;7.090;2023-03-15T13:50:18;5.75;;;2.80;;
12359;SDS011;6244;51.460;7.090;2023-03-15T13:55:18;7.68;;;2.88;;
12359;SDS011;6244;51.460;7.090;2023-03-15T14:00:19;3.75;;;2.42;;
12359;SDS011;6244;51.460;7.090;2023-03-15T14:05:17;4.05;;;2.42;;
12359;SDS011;6244;51.460;7.090;2023-03-15T14:10:25;2.97;;;2.40;;
12359;SDS011;6244;51.460;7.090;2023-03-15T14:15:33;5.72;;;2.60;;
12359;SDS011;6244;51.460;7.090;2023-03-15T14:20:34;4.63;;;2.33;;
12359;SDS011;6244;51.460;7.090;2023-03-15T14:25:34;5.80;;;2.55;;
12359;SDS011;6244;51.460;7.090;2023-03-15T14:30:34;7.00;;;2.35;;
12359;SDS011;6244;51.460;7.090;2023-03-15T14:35:39;4.05;;;2.53;;
12359;SDS011;6244;51.460;7.090;2023-03-15T14:40:38;3.47;;;2.40;;
12359;SDS011;6244;51.460;7.090;2023-03-15T14:45:36;5.78;;;2.47;;
12359;SDS011;6244;51.460;7.090;2023-03-15T14:50:35;4.15;;;2.20;;
12359;SDS011;6244;51.460;7.090;2023-03-15T14:55:34;5.57;;;2.60;;
12359;SDS011;6244;51.460;7.090;2023-03-15T15:00:31;4.95;;;2.60;;
12359;SDS011;6244;51.460;7.090;2023-03-15T15:05:30;4.28;;;2.83;;
12359;SDS011;6244;51.460;7.090;2023-03-15T15:10:29;5.82;;;2.90;;
12359;SDS011;6244;51.460;7.090;2023-03-15T15:15:26;6.07;;;2.50;;
12359;SDS011;6244;51.460;7.090;2023-03-15T15:20:22;3.95;;;2.72;;
12359;SDS011;6244;51.460;7.090;2023-03-15T15:25:21;3.88;;;2.72;;
12359;SDS011;6244;51.460;7.090;2023-03-15T15:30:20;4.47;;;2.60;;
12359;SDS011;6244;51.460;7.090;2023-03-15T15:35:19;4.40;;;2.72;;
12359;SDS011;6244;51.460;7.090;2023-03-15T15:40:17;4.25;;;2.80;;
12359;SDS011;6244;51.460;7.090;2023-03-15T15:45:17;4.75;;;2.65;;
12359;SDS011;6244;51.460;7.090;2023-03-15T15:50:15;4.97;;;2.50;;
12359;SDS011;6244;51.460;7.090;2023-03-15T15:55:14;5.82;;;2.95;;
12359;SDS011;6244;51.460;7.090;2023-03-15T16:00:13;9.55;;;2.50;;
12359;SDS011;6244;51.460;7.090;2023-03-15T16:05:14;4.47;;;2.75;;
12359;SDS011;6244;51.460;7.090;2023-03-15T16:10:15;3.53;;;2.50;;
12359;SDS011;6244;51.460;7.090;2023-03-15T16:15:14;4.22;;;2.40;;
12359;SDS011;6244;51.460;7.090;2023-03-15T16:20:13;5.28;;;3.30;;
12359;SDS011;6244;51.460;7.090;2023-03-15T16:25:12;8.73;;;2.60;;
12359;SDS011;6244;51.460;7.090;2023-03-15T16:30:17;3.92;;;2.30;;
12359;SDS011;6244;51.460;7.090;2023-03-15T16:35:17;6.07;;;3.13;;
12359;SDS011;6244;51.460;7.090;2023-03-15T16:40:15;3.75;;;2.80;;
12359;SDS011;6244;51.460;7.090;2023-03-15T16:45:15;3.58;;;2.05;;
12359;SDS011;6244;51.460;7.090;2023-03-15T16:50:12;7.18;;;2.88;;
12359;SDS011;6244;51.460;7.090;2023-03-15T16:55:11;5.55;;;2.60;;
12359;SDS011;6244;51.460;7.090;2023-03-15T17:00:10;4.72;;;2.72;;
12359;SDS011;6244;51.460;7.090;2023-03-15T17:05:11;5.85;;;2.53;;
12359;SDS011;6244;51.460;7.090;2023-03-15T17:10:16;4.72;;;2.55;;
12359;SDS011;6244;51.460;7.090;2023-03-15T17:15:16;2.92;;;2.53;;
12359;SDS011;6244;51.460;7.090;2023-03-15T17:20:14;4.18;;;2.65;;
12359;SDS011;6244;51.460;7.090;2023-03-15T17:25:16;4.20;;;2.45;;
12359;SDS011;6244;51.460;7.090;2023-03-15T17:30:14;3.72;;;2.60;;
12359;SDS011;6244;51.460;7.090;2023-03-15T17:35:12;3.97;;;2.42;;
12359;SDS011;6244;51.460;7.090;2023-03-15T17:40:13;3.05;;;2.50;;
12359;SDS011;6244;51.460;7.090;2023-03-15T17:45:16;5.53;;;2.85;;
12359;SDS011;6244;51.460;7.090;2023-03-15T17:50:15;2.88;;;2.60;;
12359;SDS011;6244;51.460;7.090;2023-03-15T17:55:15;5.68;;;3.08;;
12359;SDS011;6244;51.460;7.090;2023-03-15T18:00:15;6.30;;;2.75;;
12359;SDS011;6244;51.460;7.090;2023-03-15T18:05:14;4.57;;;2.55;;
12359;SDS011;6244;51.460;7.090;2023-03-15T18:10:12;8.13;;;3.10;;
12359;SDS011;6244;51.460;7.090;2023-03-15T18:15:11;4.63;;;3.30;;
12359;SDS011;6244;51.460;7.090;2023-03-15T18:20:10;8.95;;;3.70;;
12359;SDS011;6244;51.460;7.090;2023-03-15T18:25:10;5.25;;;3.10;;
12359;SDS011;6244;51.460;7.090;2023-03-15T18:30:14;5.60;;;3.38;;
12359;SDS011;6244;51.460;7.090;2023-03-15T18:35:14;6.40;;;3.58;;
12359;SDS011;6244;51.460;7.090;2023-03-15T18:40:13;7.35;;;3.55;;
12359;SDS011;6244;51.460;7.090;2023-03-15T18:45:19;7.32;;;4.00;;
12359;SDS011;6244;51.460;7.090;2023-03-15T18:50:19;6.25;;;3.70;;
12359;SDS011;6244;51.460;7.090;2023-03-15T18:55:17;6.75;;;3.90;;
12359;SDS011;6244;51.460;7.090;2023-03-15T19:00:16;7.80;;;4.72;;
12359;SDS011;6244;51.460;7.090;2023-03-15T19:05:19;6.63;;;4.15;;
12359;SDS011;6244;51.460;7.090;2023-03-15T19:10:19;8.73;;;5.03;;
12359;SDS011;6244;51.460;7.090;2023-03-15T19:15:16;7.60;;;4.78;;
12359;SDS011;6244;51.460;7.090;2023-03-15T19:20:14;6.38;;;4.40;;
12359;SDS011;6244;51.460;7.090;2023-03-15T19:25:13;8.52;;;5.35;;
12359;SDS011;6244;51.460;7.090;2023-03-15T19:30:11;8.35;;;4.95;;
12359;SDS011;6244;51.460;7.090;2023-03-15T19:35:11;6.68;;;4.70;;
12359;SDS011;6244;51.460;7.090;2023-03-15T19:40:09;10.05;;;5.47;;
12359;SDS011;6244;51.460;7.090;2023-03-15T19:45:08;8.48;;;4.90;;
12359;SDS011;6244;51.460;7.090;2023-03-15T19:50:06;9.07;;;5.78;;
12359;SDS011;6244;51.460;7.090;2023-03-15T19:55:05;8.48;;;5.55;;
12359;SDS011;6244;51.460;7.090;2023-03-15T20:00:03;10.30;;;5.97;;
12359;SDS011;6244;51.460;7.090;2023-03-15T20:05:06;9.50;;;5.97;;
12359;SDS011;6244;51.460;7.090;2023-03-15T20:10:04;10.48;;;5.95;;
12359;SDS011;6244;51.460;7.090;2023-03-15T20:15:02;8.75;;;5.60;;
12359;SDS011;6244;51.460;7.090;2023-03-15T20:20:00;9.02;;;5.38;;
12359;SDS011;6244;51.460;7.090;2023-03-15T20:24:58;11.10;;;5.82;;
12359;SDS011;6244;51.460;7.090;2023-03-15T20:29:55;8.48;;;5.38;;
12359;SDS011;6244;51.460;7.090;2023-03-15T20:34:54;9.23;;;5.53;;
12359;SDS011;6244;51.460;7.090;2023-03-15T20:39:53;14.55;;;6.05;;
12359;SDS011;6244;51.460;7.090;2023-03-15T20:44:51;9.18;;;5.72;;
12359;SDS011;6244;51.460;7.090;2023-03-15T20:49:47;10.07;;;6.47;;
12359;SDS011;6244;51.460;7.090;2023-03-15T20:54:44;10.80;;;5.97;;
12359;SDS011;6244;51.460;7.090;2023-03-15T20:59:40;10.05;;;6.32;;
12359;SDS011;6244;51.460;7.090;2023-03-15T21:04:38;10.60;;;4.72;;
12359;SDS011;6244;51.460;7.090;2023-03-15T21:09:35;6.32;;;4.63;;
12359;SDS011;6244;51.460;7.090;2023-03-15T21:14:32;7.18;;;4.60;;
12359;SDS011;6244;51.460;7.090;2023-03-15T21:19:29;9.82;;;5.90;;
12359;SDS011;6244;51.460;7.090;2023-03-15T21:24:28;6.85;;;4.88;;
12359;SDS011;6244;51.460;7.090;2023-03-15T21:29:26;9.88;;;4.97;;
12359;SDS011;6244;51.460;7.090;2023-03-15T21:34:22;7.05;;;5.00;;
12359;SDS011;6244;51.460;7.090;2023-03-15T21:39:19;8.75;;;5.35;;
12359;SDS011;6244;51.460;7.090;2023-03-15T21:44:17;7.68;;;4.93;;
12359;SDS011;6244;51.460;7.090;2023-03-15T21:49:13;7.78;;;4.95;;
12359;SDS011;6244;51.460;7.090;2023-03-15T21:54:10;8.35;;;5.13;;
12359;SDS011;6244;51.460;7.090;2023-03-15T21:59:07;8.63;;;5.32;;
12359;SDS011;6244;51.460;7.090;2023-03-15T22:04:06;9.82;;;5.40;;
12359;SDS011;6244;51.460;7.090;2023-03-15T22:09:02;7.40;;;5.13;;
12359;SDS011;6244;51.460;7.090;2023-03-15T22:13:59;7.82;;;5.25;;
12359;SDS011;6244;51.460;7.090;2023-03-15T22:18:55;8.05;;;5.35;;
12359;SDS011;6244;51.460;7.090;2023-03-15T22:23:53;12.32;;;5.30;;
12359;SDS011;6244;51.460;7.090;2023-03-15T22:28:50;7.85;;;5.15;;
12359;SDS011;6244;51.460;7.090;2023-03-15T22:33:46;7.47;;;4.88;;
12359;SDS011;6244;51.460;7.090;2023-03-15T22:38:43;7.35;;;5.63;;
12359;SDS011;6244;51.460;7.090;2023-03-15T22:43:45;7.35;;;4.60;;
12359;SDS011;6244;51.460;7.090;2023-03-15T22:48:42;8.60;;;5.50;;
12359;SDS011;6244;51.460;7.090;2023-03-15T22:53:38;7.90;;;4.97;;
12359;SDS011;6244;51.460;7.090;2023-03-15T22:58:35;8.63;;;4.95;;
12359;SDS011;6244;51.460;7.090;2023-03-15T23:03:33;7.05;;;4.80;;
12359;SDS011;6244;51.460;7.090;2023-03-15T23:08:29;9.35;;;4.90;;
12359;SDS011;6244;51.460;7.090;2023-03-15T23:13:26;7.95;;;4.95;;
12359;SDS011;6244;51.460;7.090;2023-03-15T23:18:22;6.18;;;4.78;;
12359;SDS011;6244;51.460;7.090;2023-03-15T23:23:20;7.88;;;4.88;;
12359;SDS011;6244;51.460;7.090;2023-03-15T23:28:23;8.95;;;4.80;;
12359;SDS011;6244;51.460;7.090;2023-03-15T23:33:20;8.75;;;4.53;;
12359;SDS011;6244;51.460;7.090;2023-03-15T23:38:17;7.63;;;4.82;;
12359;SDS011;6244;51.460;7.090;2023-03-15T23:43:15;15.75;;;6.00;;
12359;SDS011;6244;51.460;7.090;2023-03-15T23:48:11;7.22;;;4.50;;
12359;SDS011;6244;51.460;7.090;2023-03-15T23:53:08;5.63;;;3.88;;
12359;SDS011;6244;51.460;7.090;2023-03-15T23:58:04;7.22;;;4.10;;
